sensor_id;sensor_type;location;lat;lon;timestamp;P1;durP1;ratioP1;P2;durP2;ratioP2
45944;SDS011;31655;48.972;10.686;2022-12-24T00:01:10;4.30;;;1.20;;
45944;SDS011;31655;48.972;10.686;2022-12-24T00:03:36;6.75;;;1.35;;
45944;SDS011;31655;48.972;10.686;2022-12-24T00:06:03;6.78;;;1.27;;
45944;SDS011;31655;48.972;10.686;2022-12-24T00:08:33;9.70;;;2.45;;
45944;SDS011;31655;48.972;10.686;2022-12-24T00:10:59;7.00;;;1.73;;
45944;SDS011;31655;48.972;10.686;2022-12-24T00:13:24;6.07;;;1.35;;
45944;SDS011;31655;48.972;10.686;2022-12-24T00:15:50;6.25;;;1.15;;
45944;SDS011;31655;48.972;10.686;2022-12-24T00:18:16;2.80;;;1.05;;
45944;SDS011;31655;48.972;10.686;2022-12-24T00:20:48;3.67;;;1.20;;
45944;SDS011;31655;48.972;10.686;2022-12-24T00:23:15;3.97;;;1.20;;
45944;SDS011;31655;48.972;10.686;2022-12-24T00:25:41;3.25;;;1.10;;
45944;SDS011;31655;48.972;10.686;2022-12-24T00:28:07;4.80;;;1.52;;
45944;SDS011;31655;48.972;10.686;2022-12-24T00:30:33;6.63;;;1.27;;
45944;SDS011;31655;48.972;10.686;2022-12-24T00:33:01;3.85;;;1.33;;
45944;SDS011;31655;48.972;10.686;2022-12-24T00:35:26;5.47;;;1.50;;
45944;SDS011;31655;48.972;10.686;2022-12-24T00:37:53;6.65;;;1.75;;
45944;SDS011;31655;48.972;10.686;2022-12-24T00:40:19;7.40;;;2.25;;
45944;SDS011;31655;48.972;10.686;2022-12-24T00:42:45;9.18;;;1.88;;
45944;SDS011;31655;48.972;10.686;2022-12-24T00:45:10;8.88;;;2.15;;
45944;SDS011;31655;48.972;10.686;2022-12-24T00:47:37;4.50;;;1.58;;
45944;SDS011;31655;48.972;10.686;2022-12-24T00:50:03;6.07;;;1.77;;
45944;SDS011;31655;48.972;10.686;2022-12-24T00:52:29;5.80;;;1.60;;
45944;SDS011;31655;48.972;10.686;2022-12-24T00:54:55;5.22;;;2.20;;
45944;SDS011;31655;48.972;10.686;2022-12-24T00:57:21;4.13;;;1.60;;
45944;SDS011;31655;48.972;10.686;2022-12-24T00:59:46;8.00;;;2.10;;
45944;SDS011;31655;48.972;10.686;2022-12-24T01:02:12;10.73;;;2.22;;
45944;SDS011;31655;48.972;10.686;2022-12-24T01:04:37;8.05;;;2.33;;
45944;SDS011;31655;48.972;10.686;2022-12-24T01:07:21;8.30;;;2.53;;
45944;SDS011;31655;48.972;10.686;2022-12-24T01:09:47;11.70;;;2.00;;
45944;SDS011;31655;48.972;10.686;2022-12-24T01:12:12;6.97;;;1.70;;
45944;SDS011;31655;48.972;10.686;2022-12-24T01:14:38;9.48;;;2.15;;
45944;SDS011;31655;48.972;10.686;2022-12-24T01:17:04;5.65;;;2.13;;
45944;SDS011;31655;48.972;10.686;2022-12-24T01:19:29;3.38;;;1.63;;
45944;SDS011;31655;48.972;10.686;2022-12-24T01:21:55;7.03;;;2.22;;
45944;SDS011;31655;48.972;10.686;2022-12-24T01:24:22;4.10;;;2.08;;
45944;SDS011;31655;48.972;10.686;2022-12-24T01:26:47;9.00;;;2.03;;
45944;SDS011;31655;48.972;10.686;2022-12-24T01:29:13;7.68;;;2.33;;
45944;SDS011;31655;48.972;10.686;2022-12-24T01:31:39;9.57;;;2.35;;
45944;SDS011;31655;48.972;10.686;2022-12-24T01:34:05;8.38;;;2.40;;
45944;SDS011;31655;48.972;10.686;2022-12-24T01:36:31;6.65;;;2.15;;
45944;SDS011;31655;48.972;10.686;2022-12-24T01:38:58;8.18;;;2.10;;
45944;SDS011;31655;48.972;10.686;2022-12-24T01:41:24;13.15;;;2.80;;
45944;SDS011;31655;48.972;10.686;2022-12-24T01:44:28;11.52;;;2.35;;
45944;SDS011;31655;48.972;10.686;2022-12-24T01:47:17;4.32;;;1.95;;
45944;SDS011;31655;48.972;10.686;2022-12-24T01:49:58;9.40;;;2.50;;
45944;SDS011;31655;48.972;10.686;2022-12-24T01:52:29;7.43;;;3.20;;
45944;SDS011;31655;48.972;10.686;2022-12-24T01:55:00;11.90;;;3.55;;
45944;SDS011;31655;48.972;10.686;2022-12-24T01:57:31;9.02;;;2.60;;
45944;SDS011;31655;48.972;10.686;2022-12-24T02:00:04;8.45;;;1.73;;
45944;SDS011;31655;48.972;10.686;2022-12-24T02:02:32;7.40;;;2.63;;
45944;SDS011;31655;48.972;10.686;2022-12-24T02:05:07;12.48;;;2.15;;
45944;SDS011;31655;48.972;10.686;2022-12-24T02:07:38;41.92;;;17.17;;
45944;SDS011;31655;48.972;10.686;2022-12-24T02:10:06;12.02;;;5.93;;
45944;SDS011;31655;48.972;10.686;2022-12-24T02:12:33;15.43;;;2.42;;
45944;SDS011;31655;48.972;10.686;2022-12-24T02:15:01;9.30;;;2.55;;
45944;SDS011;31655;48.972;10.686;2022-12-24T02:17:35;9.45;;;3.20;;
45944;SDS011;31655;48.972;10.686;2022-12-24T02:20:23;8.15;;;2.17;;
45944;SDS011;31655;48.972;10.686;2022-12-24T02:23:37;4.47;;;2.28;;
45944;SDS011;31655;48.972;10.686;2022-12-24T02:32:21;9.07;;;2.60;;
45944;SDS011;31655;48.972;10.686;2022-12-24T02:34:52;12.88;;;2.67;;
45944;SDS011;31655;48.972;10.686;2022-12-24T02:37:33;13.30;;;2.72;;
45944;SDS011;31655;48.972;10.686;2022-12-24T02:40:57;7.57;;;2.22;;
45944;SDS011;31655;48.972;10.686;2022-12-24T02:43:07;7.93;;;2.15;;
45944;SDS011;31655;48.972;10.686;2022-12-24T02:45:36;10.82;;;2.70;;
45944;SDS011;31655;48.972;10.686;2022-12-24T02:48:04;6.47;;;2.40;;
45944;SDS011;31655;48.972;10.686;2022-12-24T02:50:30;6.40;;;2.50;;
45944;SDS011;31655;48.972;10.686;2022-12-24T02:52:56;6.25;;;2.08;;
45944;SDS011;31655;48.972;10.686;2022-12-24T02:55:23;9.27;;;2.20;;
45944;SDS011;31655;48.972;10.686;2022-12-24T03:01:00;13.98;;;2.95;;
45944;SDS011;31655;48.972;10.686;2022-12-24T03:06:40;7.82;;;1.60;;
45944;SDS011;31655;48.972;10.686;2022-12-24T03:09:55;9.10;;;1.73;;
45944;SDS011;31655;48.972;10.686;2022-12-24T03:12:29;10.50;;;2.33;;
45944;SDS011;31655;48.972;10.686;2022-12-24T03:15:03;16.02;;;2.92;;
45944;SDS011;31655;48.972;10.686;2022-12-24T03:17:31;10.23;;;1.80;;
45944;SDS011;31655;48.972;10.686;2022-12-24T03:20:00;11.60;;;2.33;;
45944;SDS011;31655;48.972;10.686;2022-12-24T03:22:27;5.85;;;1.80;;
45944;SDS011;31655;48.972;10.686;2022-12-24T03:24:55;6.95;;;2.22;;
45944;SDS011;31655;48.972;10.686;2022-12-24T03:27:20;8.20;;;2.30;;
45944;SDS011;31655;48.972;10.686;2022-12-24T03:29:46;7.07;;;2.05;;
45944;SDS011;31655;48.972;10.686;2022-12-24T03:32:12;9.05;;;2.25;;
45944;SDS011;31655;48.972;10.686;2022-12-24T03:34:37;7.95;;;2.50;;
45944;SDS011;31655;48.972;10.686;2022-12-24T03:37:03;10.88;;;2.63;;
45944;SDS011;31655;48.972;10.686;2022-12-24T03:39:29;12.05;;;2.55;;
45944;SDS011;31655;48.972;10.686;2022-12-24T03:41:55;10.45;;;2.00;;
45944;SDS011;31655;48.972;10.686;2022-12-24T03:44:21;7.47;;;2.00;;
45944;SDS011;31655;48.972;10.686;2022-12-24T03:46:47;12.98;;;2.30;;
45944;SDS011;31655;48.972;10.686;2022-12-24T03:49:13;13.23;;;3.33;;
45944;SDS011;31655;48.972;10.686;2022-12-24T03:51:39;7.07;;;2.55;;
45944;SDS011;31655;48.972;10.686;2022-12-24T03:54:04;7.70;;;2.20;;
45944;SDS011;31655;48.972;10.686;2022-12-24T03:56:30;9.15;;;2.40;;
45944;SDS011;31655;48.972;10.686;2022-12-24T03:58:56;9.20;;;2.67;;
45944;SDS011;31655;48.972;10.686;2022-12-24T04:01:22;13.15;;;3.03;;
45944;SDS011;31655;48.972;10.686;2022-12-24T04:03:48;6.75;;;2.20;;
45944;SDS011;31655;48.972;10.686;2022-12-24T04:06:14;5.65;;;2.10;;
45944;SDS011;31655;48.972;10.686;2022-12-24T04:08:41;9.80;;;2.83;;
45944;SDS011;31655;48.972;10.686;2022-12-24T04:11:09;12.02;;;2.55;;
45944;SDS011;31655;48.972;10.686;2022-12-24T04:13:37;13.55;;;3.85;;
45944;SDS011;31655;48.972;10.686;2022-12-24T04:16:03;11.55;;;2.75;;
45944;SDS011;31655;48.972;10.686;2022-12-24T04:18:31;13.05;;;2.22;;
45944;SDS011;31655;48.972;10.686;2022-12-24T04:20:56;8.95;;;2.05;;
45944;SDS011;31655;48.972;10.686;2022-12-24T04:23:22;11.13;;;2.20;;
45944;SDS011;31655;48.972;10.686;2022-12-24T04:25:48;16.98;;;2.78;;
45944;SDS011;31655;48.972;10.686;2022-12-24T04:28:14;13.32;;;2.55;;
45944;SDS011;31655;48.972;10.686;2022-12-24T04:30:40;8.93;;;1.70;;
45944;SDS011;31655;48.972;10.686;2022-12-24T04:33:07;8.57;;;2.00;;
45944;SDS011;31655;48.972;10.686;2022-12-24T04:35:33;8.65;;;2.08;;
45944;SDS011;31655;48.972;10.686;2022-12-24T04:37:59;9.02;;;2.42;;
45944;SDS011;31655;48.972;10.686;2022-12-24T04:40:24;8.70;;;2.35;;
45944;SDS011;31655;48.972;10.686;2022-12-24T04:42:50;13.65;;;2.85;;
45944;SDS011;31655;48.972;10.686;2022-12-24T04:45:16;4.38;;;1.95;;
45944;SDS011;31655;48.972;10.686;2022-12-24T04:47:42;11.88;;;2.45;;
45944;SDS011;31655;48.972;10.686;2022-12-24T04:50:08;13.93;;;2.30;;
45944;SDS011;31655;48.972;10.686;2022-12-24T04:52:34;8.27;;;2.30;;
45944;SDS011;31655;48.972;10.686;2022-12-24T04:55:01;15.65;;;2.38;;
45944;SDS011;31655;48.972;10.686;2022-12-24T04:57:27;12.15;;;2.47;;
45944;SDS011;31655;48.972;10.686;2022-12-24T04:59:54;10.25;;;2.55;;
45944;SDS011;31655;48.972;10.686;2022-12-24T05:02:20;19.73;;;3.17;;
45944;SDS011;31655;48.972;10.686;2022-12-24T05:04:46;10.68;;;2.60;;
45944;SDS011;31655;48.972;10.686;2022-12-24T05:07:12;10.07;;;2.63;;
45944;SDS011;31655;48.972;10.686;2022-12-24T05:09:37;14.63;;;2.65;;
45944;SDS011;31655;48.972;10.686;2022-12-24T05:12:03;13.75;;;3.33;;
45944;SDS011;31655;48.972;10.686;2022-12-24T05:14:29;9.27;;;2.78;;
45944;SDS011;31655;48.972;10.686;2022-12-24T05:16:55;16.50;;;3.50;;
45944;SDS011;31655;48.972;10.686;2022-12-24T05:19:21;17.88;;;3.20;;
45944;SDS011;31655;48.972;10.686;2022-12-24T05:21:47;11.23;;;3.67;;
45944;SDS011;31655;48.972;10.686;2022-12-24T05:24:33;7.30;;;2.35;;
45944;SDS011;31655;48.972;10.686;2022-12-24T05:27:18;13.80;;;3.03;;
45944;SDS011;31655;48.972;10.686;2022-12-24T05:29:43;13.75;;;2.80;;
45944;SDS011;31655;48.972;10.686;2022-12-24T05:32:09;14.82;;;3.08;;
45944;SDS011;31655;48.972;10.686;2022-12-24T05:34:34;17.00;;;4.63;;
45944;SDS011;31655;48.972;10.686;2022-12-24T05:37:00;18.13;;;3.47;;
45944;SDS011;31655;48.972;10.686;2022-12-24T05:39:25;10.57;;;3.30;;
45944;SDS011;31655;48.972;10.686;2022-12-24T05:41:51;24.20;;;4.25;;
45944;SDS011;31655;48.972;10.686;2022-12-24T05:44:17;19.55;;;4.93;;
45944;SDS011;31655;48.972;10.686;2022-12-24T05:46:42;18.73;;;4.22;;
45944;SDS011;31655;48.972;10.686;2022-12-24T05:49:08;16.25;;;3.10;;
45944;SDS011;31655;48.972;10.686;2022-12-24T05:51:34;17.27;;;3.95;;
45944;SDS011;31655;48.972;10.686;2022-12-24T05:53:59;15.60;;;3.75;;
45944;SDS011;31655;48.972;10.686;2022-12-24T05:56:28;13.40;;;3.42;;
45944;SDS011;31655;48.972;10.686;2022-12-24T05:58:54;11.68;;;2.97;;
45944;SDS011;31655;48.972;10.686;2022-12-24T06:01:20;17.20;;;4.18;;
45944;SDS011;31655;48.972;10.686;2022-12-24T06:03:46;19.17;;;4.10;;
45944;SDS011;31655;48.972;10.686;2022-12-24T06:06:16;19.23;;;3.65;;
45944;SDS011;31655;48.972;10.686;2022-12-24T06:08:44;16.52;;;4.00;;
45944;SDS011;31655;48.972;10.686;2022-12-24T06:11:11;19.63;;;3.00;;
45944;SDS011;31655;48.972;10.686;2022-12-24T06:13:39;15.35;;;3.42;;
45944;SDS011;31655;48.972;10.686;2022-12-24T06:16:06;16.40;;;3.47;;
45944;SDS011;31655;48.972;10.686;2022-12-24T06:18:34;17.13;;;3.63;;
45944;SDS011;31655;48.972;10.686;2022-12-24T06:21:01;15.80;;;3.60;;
45944;SDS011;31655;48.972;10.686;2022-12-24T06:23:28;28.80;;;4.03;;
45944;SDS011;31655;48.972;10.686;2022-12-24T06:25:56;14.45;;;3.58;;
45944;SDS011;31655;48.972;10.686;2022-12-24T06:28:24;11.85;;;3.20;;
45944;SDS011;31655;48.972;10.686;2022-12-24T06:30:50;14.73;;;3.40;;
45944;SDS011;31655;48.972;10.686;2022-12-24T06:33:16;11.52;;;3.92;;
45944;SDS011;31655;48.972;10.686;2022-12-24T06:35:46;14.18;;;3.25;;
45944;SDS011;31655;48.972;10.686;2022-12-24T06:38:12;11.45;;;4.00;;
45944;SDS011;31655;48.972;10.686;2022-12-24T06:40:39;21.35;;;3.90;;
45944;SDS011;31655;48.972;10.686;2022-12-24T06:43:05;15.10;;;3.42;;
45944;SDS011;31655;48.972;10.686;2022-12-24T06:45:32;14.27;;;3.55;;
45944;SDS011;31655;48.972;10.686;2022-12-24T06:47:57;17.55;;;3.67;;
45944;SDS011;31655;48.972;10.686;2022-12-24T06:50:25;9.23;;;3.22;;
45944;SDS011;31655;48.972;10.686;2022-12-24T06:52:51;15.25;;;3.35;;
45944;SDS011;31655;48.972;10.686;2022-12-24T06:55:17;15.23;;;4.20;;
45944;SDS011;31655;48.972;10.686;2022-12-24T06:57:43;13.45;;;3.10;;
45944;SDS011;31655;48.972;10.686;2022-12-24T07:00:10;21.83;;;4.80;;
45944;SDS011;31655;48.972;10.686;2022-12-24T07:02:42;16.95;;;3.05;;
45944;SDS011;31655;48.972;10.686;2022-12-24T07:05:09;12.82;;;3.00;;
45944;SDS011;31655;48.972;10.686;2022-12-24T07:07:37;9.27;;;2.80;;
45944;SDS011;31655;48.972;10.686;2022-12-24T07:10:05;13.27;;;3.75;;
45944;SDS011;31655;48.972;10.686;2022-12-24T07:12:31;16.40;;;3.08;;
45944;SDS011;31655;48.972;10.686;2022-12-24T07:14:57;12.70;;;2.80;;
45944;SDS011;31655;48.972;10.686;2022-12-24T07:17:23;6.90;;;3.10;;
45944;SDS011;31655;48.972;10.686;2022-12-24T07:19:48;14.63;;;3.35;;
45944;SDS011;31655;48.972;10.686;2022-12-24T07:22:14;14.85;;;3.50;;
45944;SDS011;31655;48.972;10.686;2022-12-24T07:24:40;18.50;;;5.32;;
45944;SDS011;31655;48.972;10.686;2022-12-24T07:27:06;11.65;;;4.35;;
45944;SDS011;31655;48.972;10.686;2022-12-24T07:29:32;12.95;;;4.97;;
45944;SDS011;31655;48.972;10.686;2022-12-24T07:31:58;10.30;;;2.22;;
45944;SDS011;31655;48.972;10.686;2022-12-24T07:34:24;10.15;;;3.35;;
45944;SDS011;31655;48.972;10.686;2022-12-24T07:36:50;17.75;;;2.97;;
45944;SDS011;31655;48.972;10.686;2022-12-24T07:39:16;11.90;;;2.83;;
45944;SDS011;31655;48.972;10.686;2022-12-24T07:41:42;10.43;;;2.95;;
45944;SDS011;31655;48.972;10.686;2022-12-24T07:44:10;10.00;;;2.53;;
45944;SDS011;31655;48.972;10.686;2022-12-24T07:46:37;15.75;;;3.10;;
45944;SDS011;31655;48.972;10.686;2022-12-24T07:49:03;13.60;;;3.28;;
45944;SDS011;31655;48.972;10.686;2022-12-24T07:51:28;7.15;;;3.22;;
45944;SDS011;31655;48.972;10.686;2022-12-24T07:53:54;8.90;;;2.75;;
45944;SDS011;31655;48.972;10.686;2022-12-24T07:56:20;10.13;;;2.60;;
45944;SDS011;31655;48.972;10.686;2022-12-24T07:58:46;15.05;;;2.97;;
45944;SDS011;31655;48.972;10.686;2022-12-24T08:01:13;11.70;;;2.53;;
45944;SDS011;31655;48.972;10.686;2022-12-24T08:03:39;14.18;;;3.83;;
45944;SDS011;31655;48.972;10.686;2022-12-24T08:06:05;11.68;;;2.72;;
45944;SDS011;31655;48.972;10.686;2022-12-24T08:08:32;8.15;;;2.47;;
45944;SDS011;31655;48.972;10.686;2022-12-24T08:11:01;12.63;;;2.35;;
45944;SDS011;31655;48.972;10.686;2022-12-24T08:13:28;12.27;;;2.15;;
45944;SDS011;31655;48.972;10.686;2022-12-24T08:15:54;11.57;;;2.35;;
45944;SDS011;31655;48.972;10.686;2022-12-24T08:18:20;15.90;;;2.60;;
45944;SDS011;31655;48.972;10.686;2022-12-24T08:20:45;9.82;;;2.42;;
45944;SDS011;31655;48.972;10.686;2022-12-24T08:23:11;8.55;;;2.17;;
45944;SDS011;31655;48.972;10.686;2022-12-24T08:25:40;12.55;;;2.65;;
45944;SDS011;31655;48.972;10.686;2022-12-24T08:28:10;8.65;;;3.25;;
45944;SDS011;31655;48.972;10.686;2022-12-24T08:30:36;13.23;;;2.13;;
45944;SDS011;31655;48.972;10.686;2022-12-24T08:33:02;6.88;;;3.42;;
45944;SDS011;31655;48.972;10.686;2022-12-24T08:35:28;9.20;;;2.20;;
45944;SDS011;31655;48.972;10.686;2022-12-24T08:37:54;12.77;;;3.22;;
45944;SDS011;31655;48.972;10.686;2022-12-24T08:40:19;10.98;;;2.28;;
45944;SDS011;31655;48.972;10.686;2022-12-24T08:42:45;7.70;;;2.88;;
45944;SDS011;31655;48.972;10.686;2022-12-24T08:45:11;19.17;;;3.72;;
45944;SDS011;31655;48.972;10.686;2022-12-24T08:47:37;11.82;;;3.17;;
45944;SDS011;31655;48.972;10.686;2022-12-24T08:50:04;6.63;;;2.40;;
45944;SDS011;31655;48.972;10.686;2022-12-24T08:52:31;8.20;;;2.78;;
45944;SDS011;31655;48.972;10.686;2022-12-24T08:54:56;14.10;;;3.67;;
45944;SDS011;31655;48.972;10.686;2022-12-24T08:57:22;11.48;;;3.03;;
45944;SDS011;31655;48.972;10.686;2022-12-24T08:59:48;20.83;;;3.22;;
45944;SDS011;31655;48.972;10.686;2022-12-24T09:02:14;14.15;;;2.90;;
45944;SDS011;31655;48.972;10.686;2022-12-24T09:04:40;13.25;;;3.20;;
45944;SDS011;31655;48.972;10.686;2022-12-24T09:07:06;9.48;;;2.55;;
45944;SDS011;31655;48.972;10.686;2022-12-24T09:09:33;10.07;;;2.63;;
45944;SDS011;31655;48.972;10.686;2022-12-24T09:11:58;12.57;;;2.97;;
45944;SDS011;31655;48.972;10.686;2022-12-24T09:14:24;15.50;;;2.58;;
45944;SDS011;31655;48.972;10.686;2022-12-24T09:16:50;20.40;;;4.93;;
45944;SDS011;31655;48.972;10.686;2022-12-24T09:19:16;7.90;;;2.38;;
45944;SDS011;31655;48.972;10.686;2022-12-24T09:21:41;17.02;;;2.95;;
45944;SDS011;31655;48.972;10.686;2022-12-24T09:24:07;11.13;;;2.53;;
45944;SDS011;31655;48.972;10.686;2022-12-24T09:26:33;10.05;;;2.50;;
45944;SDS011;31655;48.972;10.686;2022-12-24T09:29:00;14.73;;;3.03;;
45944;SDS011;31655;48.972;10.686;2022-12-24T09:31:26;11.60;;;3.08;;
45944;SDS011;31655;48.972;10.686;2022-12-24T09:33:52;16.02;;;2.55;;
45944;SDS011;31655;48.972;10.686;2022-12-24T09:36:18;21.80;;;4.32;;
45944;SDS011;31655;48.972;10.686;2022-12-24T09:38:45;11.65;;;3.00;;
45944;SDS011;31655;48.972;10.686;2022-12-24T09:41:19;13.90;;;3.50;;
45944;SDS011;31655;48.972;10.686;2022-12-24T09:44:11;18.85;;;4.72;;
45944;SDS011;31655;48.972;10.686;2022-12-24T09:46:53;14.55;;;3.83;;
45944;SDS011;31655;48.972;10.686;2022-12-24T09:49:23;11.43;;;3.25;;
45944;SDS011;31655;48.972;10.686;2022-12-24T09:51:55;17.73;;;5.32;;
45944;SDS011;31655;48.972;10.686;2022-12-24T09:57:07;11.05;;;3.28;;
45944;SDS011;31655;48.972;10.686;2022-12-24T09:59:44;11.18;;;2.67;;
45944;SDS011;31655;48.972;10.686;2022-12-24T10:02:16;10.82;;;3.83;;
45944;SDS011;31655;48.972;10.686;2022-12-24T10:04:43;9.73;;;4.32;;
45944;SDS011;31655;48.972;10.686;2022-12-24T10:15:21;14.63;;;2.97;;
45944;SDS011;31655;48.972;10.686;2022-12-24T10:29:12;15.05;;;3.80;;
45944;SDS011;31655;48.972;10.686;2022-12-24T10:31:54;14.20;;;2.80;;
45944;SDS011;31655;48.972;10.686;2022-12-24T10:34:30;10.18;;;2.58;;
45944;SDS011;31655;48.972;10.686;2022-12-24T10:37:05;11.57;;;2.40;;
45944;SDS011;31655;48.972;10.686;2022-12-24T10:39:31;13.60;;;3.08;;
45944;SDS011;31655;48.972;10.686;2022-12-24T10:41:57;12.20;;;2.67;;
45944;SDS011;31655;48.972;10.686;2022-12-24T10:44:28;12.57;;;3.55;;
45944;SDS011;31655;48.972;10.686;2022-12-24T10:46:55;7.68;;;2.80;;
45944;SDS011;31655;48.972;10.686;2022-12-24T10:52:18;10.13;;;2.38;;
45944;SDS011;31655;48.972;10.686;2022-12-24T10:57:30;10.50;;;2.75;;
45944;SDS011;31655;48.972;10.686;2022-12-24T10:59:56;17.15;;;2.75;;
45944;SDS011;31655;48.972;10.686;2022-12-24T11:04:52;17.88;;;2.63;;
45944;SDS011;31655;48.972;10.686;2022-12-24T11:07:18;8.38;;;2.58;;
45944;SDS011;31655;48.972;10.686;2022-12-24T11:09:53;11.35;;;3.53;;
45944;SDS011;31655;48.972;10.686;2022-12-24T11:12:28;11.27;;;3.03;;
45944;SDS011;31655;48.972;10.686;2022-12-24T11:15:06;9.38;;;2.55;;
45944;SDS011;31655;48.972;10.686;2022-12-24T11:17:51;14.50;;;2.85;;
45944;SDS011;31655;48.972;10.686;2022-12-24T11:20:19;14.15;;;3.00;;
45944;SDS011;31655;48.972;10.686;2022-12-24T11:22:51;12.55;;;2.80;;
45944;SDS011;31655;48.972;10.686;2022-12-24T11:25:36;13.93;;;3.13;;
45944;SDS011;31655;48.972;10.686;2022-12-24T11:28:15;10.38;;;2.92;;
45944;SDS011;31655;48.972;10.686;2022-12-24T11:33:56;14.18;;;3.20;;
45944;SDS011;31655;48.972;10.686;2022-12-24T11:36:22;14.93;;;3.45;;
45944;SDS011;31655;48.972;10.686;2022-12-24T11:38:56;7.00;;;2.45;;
45944;SDS011;31655;48.972;10.686;2022-12-24T11:41:23;11.15;;;2.53;;
45944;SDS011;31655;48.972;10.686;2022-12-24T11:43:51;17.98;;;2.70;;
45944;SDS011;31655;48.972;10.686;2022-12-24T11:46:34;18.50;;;3.60;;
45944;SDS011;31655;48.972;10.686;2022-12-24T11:49:04;13.27;;;2.38;;
45944;SDS011;31655;48.972;10.686;2022-12-24T11:51:37;11.65;;;2.55;;
45944;SDS011;31655;48.972;10.686;2022-12-24T11:54:15;14.05;;;3.10;;
45944;SDS011;31655;48.972;10.686;2022-12-24T11:56:51;19.60;;;3.92;;
45944;SDS011;31655;48.972;10.686;2022-12-24T11:59:21;12.13;;;3.08;;
45944;SDS011;31655;48.972;10.686;2022-12-24T12:04:43;15.52;;;3.22;;
45944;SDS011;31655;48.972;10.686;2022-12-24T12:09:43;13.38;;;2.70;;
45944;SDS011;31655;48.972;10.686;2022-12-24T12:12:14;13.57;;;3.60;;
45944;SDS011;31655;48.972;10.686;2022-12-24T12:14:47;16.80;;;3.15;;
45944;SDS011;31655;48.972;10.686;2022-12-24T12:25:45;11.00;;;2.88;;
45944;SDS011;31655;48.972;10.686;2022-12-24T12:31:20;11.30;;;2.60;;
45944;SDS011;31655;48.972;10.686;2022-12-24T12:36:33;10.15;;;2.83;;
45944;SDS011;31655;48.972;10.686;2022-12-24T12:39:04;10.95;;;2.38;;
45944;SDS011;31655;48.972;10.686;2022-12-24T12:44:18;12.77;;;4.20;;
45944;SDS011;31655;48.972;10.686;2022-12-24T12:57:53;7.85;;;2.78;;
45944;SDS011;31655;48.972;10.686;2022-12-24T13:00:24;15.15;;;2.60;;
45944;SDS011;31655;48.972;10.686;2022-12-24T13:03:01;10.20;;;3.15;;
45944;SDS011;31655;48.972;10.686;2022-12-24T13:11:56;10.68;;;2.33;;
45944;SDS011;31655;48.972;10.686;2022-12-24T13:20:20;9.95;;;2.40;;
45944;SDS011;31655;48.972;10.686;2022-12-24T13:25:37;11.57;;;2.33;;
45944;SDS011;31655;48.972;10.686;2022-12-24T13:30:50;8.93;;;2.47;;
45944;SDS011;31655;48.972;10.686;2022-12-24T13:36:11;14.55;;;2.45;;
45944;SDS011;31655;48.972;10.686;2022-12-24T13:38:40;9.23;;;2.40;;
45944;SDS011;31655;48.972;10.686;2022-12-24T13:49:40;11.18;;;3.05;;
45944;SDS011;31655;48.972;10.686;2022-12-24T13:59:54;13.30;;;3.22;;
45944;SDS011;31655;48.972;10.686;2022-12-24T14:02:27;8.57;;;2.58;;
45944;SDS011;31655;48.972;10.686;2022-12-24T14:04:58;11.73;;;3.00;;
45944;SDS011;31655;48.972;10.686;2022-12-24T14:07:27;11.90;;;2.13;;
45944;SDS011;31655;48.972;10.686;2022-12-24T14:09:53;10.95;;;2.22;;
45944;SDS011;31655;48.972;10.686;2022-12-24T14:18:17;11.65;;;2.03;;
45944;SDS011;31655;48.972;10.686;2022-12-24T14:20:49;7.30;;;2.20;;
45944;SDS011;31655;48.972;10.686;2022-12-24T14:23:20;12.27;;;2.70;;
45944;SDS011;31655;48.972;10.686;2022-12-24T14:25:53;5.97;;;2.20;;
45944;SDS011;31655;48.972;10.686;2022-12-24T14:28:22;10.00;;;2.60;;
45944;SDS011;31655;48.972;10.686;2022-12-24T14:31:00;8.45;;;2.25;;
45944;SDS011;31655;48.972;10.686;2022-12-24T14:33:31;9.07;;;4.05;;
45944;SDS011;31655;48.972;10.686;2022-12-24T14:35:58;8.10;;;2.05;;
45944;SDS011;31655;48.972;10.686;2022-12-24T14:38:26;11.75;;;2.67;;
45944;SDS011;31655;48.972;10.686;2022-12-24T14:46:52;7.32;;;2.03;;
45944;SDS011;31655;48.972;10.686;2022-12-24T14:54:51;7.95;;;2.10;;
45944;SDS011;31655;48.972;10.686;2022-12-24T14:57:24;14.48;;;3.33;;
45944;SDS011;31655;48.972;10.686;2022-12-24T14:59:54;11.15;;;2.75;;
45944;SDS011;31655;48.972;10.686;2022-12-24T15:07:38;12.65;;;3.65;;
45944;SDS011;31655;48.972;10.686;2022-12-24T15:10:19;23.00;;;5.18;;
45944;SDS011;31655;48.972;10.686;2022-12-24T15:12:49;14.77;;;3.28;;
45944;SDS011;31655;48.972;10.686;2022-12-24T15:15:15;14.43;;;3.00;;
45944;SDS011;31655;48.972;10.686;2022-12-24T15:17:43;12.05;;;3.53;;
45944;SDS011;31655;48.972;10.686;2022-12-24T15:20:12;13.82;;;3.50;;
45944;SDS011;31655;48.972;10.686;2022-12-24T15:22:43;22.50;;;3.50;;
45944;SDS011;31655;48.972;10.686;2022-12-24T15:25:17;16.92;;;4.55;;
45944;SDS011;31655;48.972;10.686;2022-12-24T15:27:43;16.13;;;3.00;;
45944;SDS011;31655;48.972;10.686;2022-12-24T15:30:28;13.65;;;3.75;;
45944;SDS011;31655;48.972;10.686;2022-12-24T15:32:55;14.30;;;4.07;;
45944;SDS011;31655;48.972;10.686;2022-12-24T15:35:42;14.68;;;3.78;;
45944;SDS011;31655;48.972;10.686;2022-12-24T15:40:49;13.80;;;4.20;;
45944;SDS011;31655;48.972;10.686;2022-12-24T15:43:15;13.50;;;3.97;;
45944;SDS011;31655;48.972;10.686;2022-12-24T15:45:42;30.63;;;13.95;;
45944;SDS011;31655;48.972;10.686;2022-12-24T15:48:10;22.35;;;9.88;;
45944;SDS011;31655;48.972;10.686;2022-12-24T15:50:43;23.15;;;10.70;;
45944;SDS011;31655;48.972;10.686;2022-12-24T15:53:14;16.42;;;7.47;;
45944;SDS011;31655;48.972;10.686;2022-12-24T15:58:27;17.42;;;6.95;;
45944;SDS011;31655;48.972;10.686;2022-12-24T16:01:02;17.50;;;6.57;;
45944;SDS011;31655;48.972;10.686;2022-12-24T16:03:32;22.55;;;6.22;;
45944;SDS011;31655;48.972;10.686;2022-12-24T16:06:02;22.50;;;7.25;;
45944;SDS011;31655;48.972;10.686;2022-12-24T16:08:30;22.05;;;9.75;;
45944;SDS011;31655;48.972;10.686;2022-12-24T16:11:17;26.70;;;8.50;;
45944;SDS011;31655;48.972;10.686;2022-12-24T16:13:58;23.88;;;6.63;;
45944;SDS011;31655;48.972;10.686;2022-12-24T16:16:34;13.20;;;5.50;;
45944;SDS011;31655;48.972;10.686;2022-12-24T16:19:05;27.77;;;7.03;;
45944;SDS011;31655;48.972;10.686;2022-12-24T16:21:40;14.52;;;5.07;;
45944;SDS011;31655;48.972;10.686;2022-12-24T16:24:11;21.67;;;5.53;;
45944;SDS011;31655;48.972;10.686;2022-12-24T16:26:44;20.90;;;6.30;;
45944;SDS011;31655;48.972;10.686;2022-12-24T16:29:11;22.48;;;6.13;;
45944;SDS011;31655;48.972;10.686;2022-12-24T16:31:48;14.90;;;5.72;;
45944;SDS011;31655;48.972;10.686;2022-12-24T16:34:23;15.63;;;5.78;;
45944;SDS011;31655;48.972;10.686;2022-12-24T16:36:53;18.13;;;6.07;;
45944;SDS011;31655;48.972;10.686;2022-12-24T16:39:21;15.05;;;5.40;;
45944;SDS011;31655;48.972;10.686;2022-12-24T16:41:56;15.65;;;5.35;;
45944;SDS011;31655;48.972;10.686;2022-12-24T16:44:42;17.25;;;5.05;;
45944;SDS011;31655;48.972;10.686;2022-12-24T16:47:26;11.40;;;5.15;;
45944;SDS011;31655;48.972;10.686;2022-12-24T16:49:55;13.57;;;4.20;;
45944;SDS011;31655;48.972;10.686;2022-12-24T16:52:25;12.10;;;6.10;;
45944;SDS011;31655;48.972;10.686;2022-12-24T16:54:57;15.27;;;6.28;;
45944;SDS011;31655;48.972;10.686;2022-12-24T16:57:24;13.57;;;5.00;;
45944;SDS011;31655;48.972;10.686;2022-12-24T16:59:50;14.25;;;5.25;;
45944;SDS011;31655;48.972;10.686;2022-12-24T17:02:17;17.02;;;5.10;;